sensor_id;sensor_type;location;lat;lon;timestamp;P1;durP1;ratioP1;P2;durP2;ratioP2
65757;SDS011;52495;52.208;5.158;2023-03-24T00:00:07;10.05;;;4.25;;
65757;SDS011;52495;52.208;5.158;2023-03-24T00:02:37;7.13;;;3.28;;
65757;SDS011;52495;52.208;5.158;2023-03-24T00:05:06;6.95;;;3.50;;
65757;SDS011;52495;52.208;5.158;2023-03-24T00:07:33;8.27;;;3.20;;
65757;SDS011;52495;52.208;5.158;2023-03-24T00:10:03;9.13;;;3.38;;
65757;SDS011;52495;52.208;5.158;2023-03-24T00:12:35;7.88;;;3.30;;
65757;SDS011;52495;52.208;5.158;2023-03-24T00:15:03;11.05;;;3.67;;
65757;SDS011;52495;52.208;5.158;2023-03-24T00:17:31;12.07;;;3.80;;
65757;SDS011;52495;52.208;5.158;2023-03-24T00:20:00;8.93;;;3.58;;
65757;SDS011;52495;52.208;5.158;2023-03-24T00:22:31;8.60;;;3.72;;
65757;SDS011;52495;52.208;5.158;2023-03-24T00:24:58;8.40;;;3.78;;
65757;SDS011;52495;52.208;5.158;2023-03-24T00:27:28;6.70;;;3.75;;
65757;SDS011;52495;52.208;5.158;2023-03-24T00:29:57;10.00;;;3.65;;
65757;SDS011;52495;52.208;5.158;2023-03-24T00:32:24;8.60;;;3.83;;
65757;SDS011;52495;52.208;5.158;2023-03-24T00:34:51;7.85;;;3.35;;
65757;SDS011;52495;52.208;5.158;2023-03-24T00:37:18;9.02;;;3.80;;
65757;SDS011;52495;52.208;5.158;2023-03-24T00:39:45;8.48;;;3.83;;
65757;SDS011;52495;52.208;5.158;2023-03-24T00:42:12;11.43;;;3.92;;
65757;SDS011;52495;52.208;5.158;2023-03-24T00:44:38;8.70;;;4.13;;
65757;SDS011;52495;52.208;5.158;2023-03-24T00:47:07;8.93;;;3.72;;
65757;SDS011;52495;52.208;5.158;2023-03-24T00:49:35;11.40;;;3.53;;
65757;SDS011;52495;52.208;5.158;2023-03-24T00:52:09;7.43;;;3.17;;
65757;SDS011;52495;52.208;5.158;2023-03-24T00:54:38;7.63;;;3.65;;
65757;SDS011;52495;52.208;5.158;2023-03-24T00:57:06;6.63;;;3.65;;
65757;SDS011;52495;52.208;5.158;2023-03-24T00:59:33;7.22;;;3.67;;
65757;SDS011;52495;52.208;5.158;2023-03-24T01:04:36;6.95;;;3.35;;
65757;SDS011;52495;52.208;5.158;2023-03-24T01:07:03;7.88;;;3.42;;
65757;SDS011;52495;52.208;5.158;2023-03-24T01:09:32;8.43;;;3.25;;
65757;SDS011;52495;52.208;5.158;2023-03-24T01:12:00;7.82;;;3.80;;
65757;SDS011;52495;52.208;5.158;2023-03-24T01:14:29;5.78;;;3.20;;
65757;SDS011;52495;52.208;5.158;2023-03-24T01:16:56;6.68;;;3.67;;
65757;SDS011;52495;52.208;5.158;2023-03-24T01:19:25;7.97;;;3.60;;
65757;SDS011;52495;52.208;5.158;2023-03-24T01:21:53;7.90;;;3.40;;
65757;SDS011;52495;52.208;5.158;2023-03-24T01:24:20;7.05;;;3.60;;
65757;SDS011;52495;52.208;5.158;2023-03-24T01:26:49;5.45;;;3.00;;
65757;SDS011;52495;52.208;5.158;2023-03-24T01:29:16;5.10;;;3.13;;
65757;SDS011;52495;52.208;5.158;2023-03-24T01:31:43;8.25;;;3.25;;
65757;SDS011;52495;52.208;5.158;2023-03-24T01:34:10;9.13;;;3.28;;
65757;SDS011;52495;52.208;5.158;2023-03-24T01:36:38;7.60;;;3.70;;
65757;SDS011;52495;52.208;5.158;2023-03-24T01:39:05;7.40;;;3.83;;
65757;SDS011;52495;52.208;5.158;2023-03-24T01:41:33;8.95;;;3.20;;
65757;SDS011;52495;52.208;5.158;2023-03-24T01:46:55;6.97;;;3.50;;
65757;SDS011;52495;52.208;5.158;2023-03-24T01:49:24;5.75;;;3.67;;
65757;SDS011;52495;52.208;5.158;2023-03-24T01:52:10;5.93;;;3.50;;
65757;SDS011;52495;52.208;5.158;2023-03-24T01:54:41;8.30;;;3.97;;
65757;SDS011;52495;52.208;5.158;2023-03-24T01:57:14;6.78;;;3.60;;
65757;SDS011;52495;52.208;5.158;2023-03-24T01:59:48;6.35;;;3.58;;
65757;SDS011;52495;52.208;5.158;2023-03-24T02:02:36;7.38;;;3.45;;
65757;SDS011;52495;52.208;5.158;2023-03-24T02:05:05;8.82;;;3.85;;
65757;SDS011;52495;52.208;5.158;2023-03-24T02:07:43;8.48;;;3.67;;
65757;SDS011;52495;52.208;5.158;2023-03-24T02:10:17;7.05;;;3.95;;
65757;SDS011;52495;52.208;5.158;2023-03-24T02:12:45;6.70;;;4.10;;
65757;SDS011;52495;52.208;5.158;2023-03-24T02:15:16;7.05;;;3.97;;
65757;SDS011;52495;52.208;5.158;2023-03-24T02:17:48;8.18;;;4.40;;
65757;SDS011;52495;52.208;5.158;2023-03-24T02:23:41;5.93;;;3.83;;
65757;SDS011;52495;52.208;5.158;2023-03-24T02:26:34;5.00;;;3.63;;
65757;SDS011;52495;52.208;5.158;2023-03-24T02:29:26;6.03;;;2.72;;
65757;SDS011;52495;52.208;5.158;2023-03-24T02:32:11;4.68;;;2.42;;
65757;SDS011;52495;52.208;5.158;2023-03-24T02:35:25;5.50;;;1.95;;
65757;SDS011;52495;52.208;5.158;2023-03-24T02:38:14;3.20;;;1.73;;
65757;SDS011;52495;52.208;5.158;2023-03-24T02:40:53;8.98;;;1.92;;
65757;SDS011;52495;52.208;5.158;2023-03-24T02:43:31;3.08;;;1.20;;
65757;SDS011;52495;52.208;5.158;2023-03-24T02:46:06;4.20;;;1.60;;
65757;SDS011;52495;52.208;5.158;2023-03-24T02:48:45;4.18;;;1.50;;
65757;SDS011;52495;52.208;5.158;2023-03-24T02:51:26;4.15;;;1.40;;
65757;SDS011;52495;52.208;5.158;2023-03-24T02:53:58;5.03;;;2.00;;
65757;SDS011;52495;52.208;5.158;2023-03-24T02:56:35;3.60;;;1.30;;
65757;SDS011;52495;52.208;5.158;2023-03-24T02:59:25;5.60;;;1.75;;
65757;SDS011;52495;52.208;5.158;2023-03-24T03:02:04;5.63;;;1.50;;
65757;SDS011;52495;52.208;5.158;2023-03-24T03:04:40;5.30;;;1.50;;
65757;SDS011;52495;52.208;5.158;2023-03-24T03:07:16;5.15;;;1.98;;
65757;SDS011;52495;52.208;5.158;2023-03-24T03:09:48;3.60;;;1.52;;
65757;SDS011;52495;52.208;5.158;2023-03-24T03:12:21;8.63;;;1.90;;
65757;SDS011;52495;52.208;5.158;2023-03-24T03:14:51;7.55;;;2.08;;
65757;SDS011;52495;52.208;5.158;2023-03-24T03:17:23;3.65;;;1.40;;
65757;SDS011;52495;52.208;5.158;2023-03-24T03:19:57;4.43;;;1.75;;
65757;SDS011;52495;52.208;5.158;2023-03-24T03:22:36;6.65;;;1.90;;
65757;SDS011;52495;52.208;5.158;2023-03-24T03:27:36;6.43;;;1.90;;
65757;SDS011;52495;52.208;5.158;2023-03-24T03:30:06;7.82;;;1.60;;
65757;SDS011;52495;52.208;5.158;2023-03-24T03:32:38;8.38;;;1.70;;
65757;SDS011;52495;52.208;5.158;2023-03-24T03:35:11;9.88;;;1.80;;
65757;SDS011;52495;52.208;5.158;2023-03-24T03:37:44;8.80;;;2.33;;
65757;SDS011;52495;52.208;5.158;2023-03-24T03:40:18;13.40;;;2.45;;
65757;SDS011;52495;52.208;5.158;2023-03-24T03:42:55;9.85;;;2.22;;
65757;SDS011;52495;52.208;5.158;2023-03-24T03:45:22;9.18;;;2.50;;
65757;SDS011;52495;52.208;5.158;2023-03-24T03:47:49;12.70;;;2.30;;
65757;SDS011;52495;52.208;5.158;2023-03-24T03:50:16;8.70;;;2.65;;
65757;SDS011;52495;52.208;5.158;2023-03-24T03:52:43;9.88;;;2.92;;
65757;SDS011;52495;52.208;5.158;2023-03-24T03:55:10;11.48;;;2.67;;
65757;SDS011;52495;52.208;5.158;2023-03-24T03:57:39;9.43;;;2.13;;
65757;SDS011;52495;52.208;5.158;2023-03-24T04:00:40;11.48;;;2.25;;
65757;SDS011;52495;52.208;5.158;2023-03-24T04:03:50;15.60;;;2.70;;
65757;SDS011;52495;52.208;5.158;2023-03-24T04:06:53;13.30;;;2.70;;
65757;SDS011;52495;52.208;5.158;2023-03-24T04:09:35;9.07;;;2.72;;
65757;SDS011;52495;52.208;5.158;2023-03-24T04:12:13;11.25;;;2.70;;
65757;SDS011;52495;52.208;5.158;2023-03-24T04:15:14;11.88;;;2.50;;
65757;SDS011;52495;52.208;5.158;2023-03-24T04:18:27;9.93;;;2.38;;
65757;SDS011;52495;52.208;5.158;2023-03-24T04:21:09;12.45;;;2.97;;
65757;SDS011;52495;52.208;5.158;2023-03-24T04:23:54;9.25;;;2.35;;
65757;SDS011;52495;52.208;5.158;2023-03-24T04:26:33;12.07;;;2.92;;
65757;SDS011;52495;52.208;5.158;2023-03-24T04:29:06;10.90;;;2.90;;
65757;SDS011;52495;52.208;5.158;2023-03-24T04:31:43;9.70;;;2.65;;
65757;SDS011;52495;52.208;5.158;2023-03-24T04:34:18;11.43;;;2.67;;
65757;SDS011;52495;52.208;5.158;2023-03-24T04:36:47;10.80;;;2.70;;
65757;SDS011;52495;52.208;5.158;2023-03-24T04:39:35;13.32;;;2.70;;
65757;SDS011;52495;52.208;5.158;2023-03-24T04:42:11;15.85;;;2.58;;
65757;SDS011;52495;52.208;5.158;2023-03-24T04:44:42;11.32;;;2.60;;
65757;SDS011;52495;52.208;5.158;2023-03-24T04:47:12;11.43;;;2.83;;
65757;SDS011;52495;52.208;5.158;2023-03-24T04:50:00;19.35;;;2.80;;
65757;SDS011;52495;52.208;5.158;2023-03-24T04:52:28;15.15;;;3.28;;
65757;SDS011;52495;52.208;5.158;2023-03-24T04:54:56;20.50;;;3.58;;
65757;SDS011;52495;52.208;5.158;2023-03-24T04:57:24;14.80;;;3.30;;
65757;SDS011;52495;52.208;5.158;2023-03-24T04:59:58;16.48;;;3.05;;
65757;SDS011;52495;52.208;5.158;2023-03-24T05:02:28;15.57;;;3.25;;
65757;SDS011;52495;52.208;5.158;2023-03-24T05:05:06;19.80;;;2.85;;
65757;SDS011;52495;52.208;5.158;2023-03-24T05:07:38;12.95;;;3.35;;
65757;SDS011;52495;52.208;5.158;2023-03-24T05:10:09;17.92;;;3.20;;
65757;SDS011;52495;52.208;5.158;2023-03-24T05:12:44;13.10;;;4.10;;
65757;SDS011;52495;52.208;5.158;2023-03-24T05:15:31;21.60;;;4.18;;
65757;SDS011;52495;52.208;5.158;2023-03-24T05:18:18;18.80;;;3.38;;
65757;SDS011;52495;52.208;5.158;2023-03-24T05:20:46;20.25;;;3.75;;
65757;SDS011;52495;52.208;5.158;2023-03-24T05:23:18;20.13;;;4.07;;
65757;SDS011;52495;52.208;5.158;2023-03-24T05:25:46;25.23;;;4.50;;
65757;SDS011;52495;52.208;5.158;2023-03-24T05:28:14;25.13;;;4.60;;
65757;SDS011;52495;52.208;5.158;2023-03-24T05:30:42;21.63;;;3.90;;
65757;SDS011;52495;52.208;5.158;2023-03-24T05:33:29;21.88;;;4.65;;
65757;SDS011;52495;52.208;5.158;2023-03-24T05:35:58;16.63;;;3.40;;
65757;SDS011;52495;52.208;5.158;2023-03-24T05:38:25;17.42;;;4.00;;
65757;SDS011;52495;52.208;5.158;2023-03-24T05:40:54;23.63;;;4.40;;
65757;SDS011;52495;52.208;5.158;2023-03-24T05:43:22;24.85;;;4.78;;
65757;SDS011;52495;52.208;5.158;2023-03-24T05:45:59;18.67;;;4.68;;
65757;SDS011;52495;52.208;5.158;2023-03-24T05:48:29;21.83;;;4.53;;
65757;SDS011;52495;52.208;5.158;2023-03-24T05:51:17;18.35;;;3.97;;
65757;SDS011;52495;52.208;5.158;2023-03-24T05:53:49;22.27;;;4.70;;
65757;SDS011;52495;52.208;5.158;2023-03-24T05:56:20;20.92;;;3.75;;
65757;SDS011;52495;52.208;5.158;2023-03-24T05:59:10;24.10;;;4.70;;
65757;SDS011;52495;52.208;5.158;2023-03-24T06:01:46;21.85;;;4.68;;
65757;SDS011;52495;52.208;5.158;2023-03-24T06:04:20;25.92;;;4.30;;
65757;SDS011;52495;52.208;5.158;2023-03-24T06:06:50;26.52;;;5.03;;
65757;SDS011;52495;52.208;5.158;2023-03-24T06:09:23;22.52;;;3.97;;
65757;SDS011;52495;52.208;5.158;2023-03-24T06:11:50;29.58;;;4.40;;
65757;SDS011;52495;52.208;5.158;2023-03-24T06:14:17;22.70;;;4.47;;
65757;SDS011;52495;52.208;5.158;2023-03-24T06:16:56;17.85;;;3.75;;
65757;SDS011;52495;52.208;5.158;2023-03-24T06:19:23;21.38;;;4.32;;
65757;SDS011;52495;52.208;5.158;2023-03-24T06:22:11;20.65;;;3.70;;
65757;SDS011;52495;52.208;5.158;2023-03-24T06:24:39;16.98;;;3.17;;
65757;SDS011;52495;52.208;5.158;2023-03-24T06:27:08;16.77;;;3.70;;
65757;SDS011;52495;52.208;5.158;2023-03-24T06:29:35;14.88;;;3.25;;
65757;SDS011;52495;52.208;5.158;2023-03-24T06:32:04;16.35;;;4.03;;
65757;SDS011;52495;52.208;5.158;2023-03-24T06:34:36;17.73;;;4.07;;
65757;SDS011;52495;52.208;5.158;2023-03-24T06:37:26;19.08;;;3.97;;
65757;SDS011;52495;52.208;5.158;2023-03-24T06:39:53;21.60;;;3.92;;
65757;SDS011;52495;52.208;5.158;2023-03-24T06:42:23;21.10;;;4.00;;
65757;SDS011;52495;52.208;5.158;2023-03-24T06:44:51;17.83;;;3.45;;
65757;SDS011;52495;52.208;5.158;2023-03-24T06:47:18;21.23;;;4.22;;
65757;SDS011;52495;52.208;5.158;2023-03-24T06:49:45;15.60;;;3.90;;
65757;SDS011;52495;52.208;5.158;2023-03-24T06:52:12;19.50;;;3.72;;
65757;SDS011;52495;52.208;5.158;2023-03-24T06:54:41;11.63;;;2.80;;
65757;SDS011;52495;52.208;5.158;2023-03-24T06:57:08;20.38;;;3.95;;
65757;SDS011;52495;52.208;5.158;2023-03-24T06:59:53;18.50;;;3.67;;
65757;SDS011;52495;52.208;5.158;2023-03-24T07:02:21;16.52;;;3.58;;
65757;SDS011;52495;52.208;5.158;2023-03-24T07:04:49;20.30;;;4.03;;
65757;SDS011;52495;52.208;5.158;2023-03-24T07:07:26;17.48;;;4.38;;
65757;SDS011;52495;52.208;5.158;2023-03-24T07:10:15;21.85;;;4.38;;
65757;SDS011;52495;52.208;5.158;2023-03-24T07:12:43;18.52;;;3.70;;
65757;SDS011;52495;52.208;5.158;2023-03-24T07:15:12;18.30;;;3.55;;
65757;SDS011;52495;52.208;5.158;2023-03-24T07:17:40;18.75;;;3.85;;
65757;SDS011;52495;52.208;5.158;2023-03-24T07:20:15;19.33;;;3.97;;
65757;SDS011;52495;52.208;5.158;2023-03-24T07:22:48;22.80;;;5.45;;
65757;SDS011;52495;52.208;5.158;2023-03-24T07:25:25;23.45;;;4.10;;
65757;SDS011;52495;52.208;5.158;2023-03-24T07:28:01;21.92;;;4.18;;
65757;SDS011;52495;52.208;5.158;2023-03-24T07:30:27;17.25;;;3.55;;
65757;SDS011;52495;52.208;5.158;2023-03-24T07:32:54;17.10;;;4.05;;
65757;SDS011;52495;52.208;5.158;2023-03-24T07:35:21;17.75;;;3.67;;
65757;SDS011;52495;52.208;5.158;2023-03-24T07:37:48;12.80;;;3.67;;
65757;SDS011;52495;52.208;5.158;2023-03-24T07:40:15;16.77;;;3.20;;
65757;SDS011;52495;52.208;5.158;2023-03-24T07:42:44;16.73;;;3.05;;
65757;SDS011;52495;52.208;5.158;2023-03-24T07:45:23;12.85;;;3.20;;
65757;SDS011;52495;52.208;5.158;2023-03-24T07:47:50;20.38;;;3.65;;
65757;SDS011;52495;52.208;5.158;2023-03-24T07:50:17;15.82;;;3.05;;
65757;SDS011;52495;52.208;5.158;2023-03-24T07:52:46;22.05;;;4.00;;
65757;SDS011;52495;52.208;5.158;2023-03-24T07:55:14;16.10;;;3.63;;
65757;SDS011;52495;52.208;5.158;2023-03-24T07:58:05;19.73;;;3.60;;
65757;SDS011;52495;52.208;5.158;2023-03-24T08:00:33;13.60;;;3.10;;
65757;SDS011;52495;52.208;5.158;2023-03-24T08:03:22;20.98;;;4.00;;
65757;SDS011;52495;52.208;5.158;2023-03-24T08:06:04;14.13;;;3.42;;
65757;SDS011;52495;52.208;5.158;2023-03-24T08:08:38;20.40;;;3.97;;
65757;SDS011;52495;52.208;5.158;2023-03-24T08:11:05;15.95;;;3.28;;
65757;SDS011;52495;52.208;5.158;2023-03-24T08:13:33;14.32;;;2.95;;
65757;SDS011;52495;52.208;5.158;2023-03-24T08:16:00;18.08;;;3.30;;
65757;SDS011;52495;52.208;5.158;2023-03-24T08:18:27;21.25;;;3.30;;
65757;SDS011;52495;52.208;5.158;2023-03-24T08:20:56;15.48;;;3.95;;
65757;SDS011;52495;52.208;5.158;2023-03-24T08:23:25;14.13;;;3.03;;
65757;SDS011;52495;52.208;5.158;2023-03-24T08:25:52;15.50;;;3.45;;
65757;SDS011;52495;52.208;5.158;2023-03-24T08:28:19;17.58;;;3.72;;
65757;SDS011;52495;52.208;5.158;2023-03-24T08:30:47;14.93;;;3.67;;
65757;SDS011;52495;52.208;5.158;2023-03-24T08:33:14;21.35;;;3.90;;
65757;SDS011;52495;52.208;5.158;2023-03-24T08:35:41;18.40;;;3.70;;
65757;SDS011;52495;52.208;5.158;2023-03-24T08:38:10;12.52;;;3.42;;
65757;SDS011;52495;52.208;5.158;2023-03-24T08:40:39;17.42;;;3.60;;
65757;SDS011;52495;52.208;5.158;2023-03-24T08:43:07;24.60;;;3.53;;
65757;SDS011;52495;52.208;5.158;2023-03-24T08:45:38;17.13;;;2.97;;
65757;SDS011;52495;52.208;5.158;2023-03-24T08:48:06;14.40;;;3.30;;
65757;SDS011;52495;52.208;5.158;2023-03-24T08:50:35;11.93;;;3.80;;
65757;SDS011;52495;52.208;5.158;2023-03-24T08:53:05;15.40;;;2.90;;
65757;SDS011;52495;52.208;5.158;2023-03-24T08:55:32;13.05;;;3.22;;
65757;SDS011;52495;52.208;5.158;2023-03-24T08:57:59;17.77;;;3.35;;
65757;SDS011;52495;52.208;5.158;2023-03-24T09:00:26;16.08;;;2.97;;
65757;SDS011;52495;52.208;5.158;2023-03-24T09:02:55;12.35;;;3.05;;
65757;SDS011;52495;52.208;5.158;2023-03-24T09:05:24;15.32;;;3.50;;
65757;SDS011;52495;52.208;5.158;2023-03-24T09:07:51;15.98;;;3.63;;
65757;SDS011;52495;52.208;5.158;2023-03-24T09:10:18;11.40;;;3.35;;
65757;SDS011;52495;52.208;5.158;2023-03-24T09:12:46;11.60;;;2.33;;
65757;SDS011;52495;52.208;5.158;2023-03-24T09:15:13;14.02;;;3.65;;
65757;SDS011;52495;52.208;5.158;2023-03-24T09:17:40;12.70;;;3.08;;
65757;SDS011;52495;52.208;5.158;2023-03-24T09:20:09;8.57;;;2.60;;
65757;SDS011;52495;52.208;5.158;2023-03-24T09:22:40;15.40;;;3.50;;
65757;SDS011;52495;52.208;5.158;2023-03-24T09:25:09;15.60;;;3.25;;
65757;SDS011;52495;52.208;5.158;2023-03-24T09:27:38;14.18;;;4.95;;
65757;SDS011;52495;52.208;5.158;2023-03-24T09:30:06;9.45;;;2.50;;
65757;SDS011;52495;52.208;5.158;2023-03-24T09:32:34;16.75;;;3.53;;
65757;SDS011;52495;52.208;5.158;2023-03-24T09:35:01;12.13;;;3.25;;
65757;SDS011;52495;52.208;5.158;2023-03-24T09:37:29;16.92;;;3.28;;
65757;SDS011;52495;52.208;5.158;2023-03-24T09:40:00;10.85;;;2.78;;
65757;SDS011;52495;52.208;5.158;2023-03-24T09:42:31;13.77;;;3.35;;
65757;SDS011;52495;52.208;5.158;2023-03-24T09:45:02;17.65;;;2.95;;
65757;SDS011;52495;52.208;5.158;2023-03-24T09:47:33;21.42;;;3.42;;
65757;SDS011;52495;52.208;5.158;2023-03-24T09:50:06;16.75;;;3.08;;
65757;SDS011;52495;52.208;5.158;2023-03-24T09:52:35;21.45;;;3.28;;
65757;SDS011;52495;52.208;5.158;2023-03-24T09:55:10;10.65;;;3.53;;
65757;SDS011;52495;52.208;5.158;2023-03-24T09:57:42;15.23;;;3.50;;
65757;SDS011;52495;52.208;5.158;2023-03-24T10:00:15;15.00;;;3.80;;
65757;SDS011;52495;52.208;5.158;2023-03-24T10:02:44;11.85;;;2.78;;
65757;SDS011;52495;52.208;5.158;2023-03-24T10:05:12;13.77;;;3.17;;
65757;SDS011;52495;52.208;5.158;2023-03-24T10:07:42;14.30;;;2.83;;
65757;SDS011;52495;52.208;5.158;2023-03-24T10:10:17;12.35;;;2.78;;
65757;SDS011;52495;52.208;5.158;2023-03-24T10:12:52;15.40;;;2.90;;
65757;SDS011;52495;52.208;5.158;2023-03-24T10:15:29;14.13;;;2.67;;
65757;SDS011;52495;52.208;5.158;2023-03-24T10:18:00;15.65;;;3.85;;
65757;SDS011;52495;52.208;5.158;2023-03-24T10:20:46;14.93;;;3.05;;
65757;SDS011;52495;52.208;5.158;2023-03-24T10:23:19;11.85;;;3.38;;
65757;SDS011;52495;52.208;5.158;2023-03-24T10:25:53;21.85;;;3.50;;
65757;SDS011;52495;52.208;5.158;2023-03-24T10:28:26;15.65;;;3.83;;
65757;SDS011;52495;52.208;5.158;2023-03-24T10:31:02;15.50;;;3.05;;
65757;SDS011;52495;52.208;5.158;2023-03-24T10:33:36;10.27;;;2.83;;
65757;SDS011;52495;52.208;5.158;2023-03-24T10:36:07;18.10;;;3.08;;
65757;SDS011;52495;52.208;5.158;2023-03-24T10:38:36;17.27;;;2.85;;
65757;SDS011;52495;52.208;5.158;2023-03-24T10:41:05;11.00;;;2.90;;
65757;SDS011;52495;52.208;5.158;2023-03-24T10:43:32;17.50;;;3.55;;
65757;SDS011;52495;52.208;5.158;2023-03-24T10:45:58;13.80;;;3.45;;
65757;SDS011;52495;52.208;5.158;2023-03-24T10:48:34;17.42;;;3.38;;
65757;SDS011;52495;52.208;5.158;2023-03-24T10:51:10;11.88;;;2.67;;
65757;SDS011;52495;52.208;5.158;2023-03-24T10:53:40;15.05;;;3.38;;
65757;SDS011;52495;52.208;5.158;2023-03-24T10:56:08;11.70;;;2.40;;
65757;SDS011;52495;52.208;5.158;2023-03-24T10:58:41;12.15;;;3.05;;
65757;SDS011;52495;52.208;5.158;2023-03-24T11:01:18;10.88;;;2.58;;
65757;SDS011;52495;52.208;5.158;2023-03-24T11:03:49;9.02;;;2.50;;
65757;SDS011;52495;52.208;5.158;2023-03-24T11:06:17;8.77;;;2.30;;
65757;SDS011;52495;52.208;5.158;2023-03-24T11:08:46;10.63;;;2.75;;
65757;SDS011;52495;52.208;5.158;2023-03-24T11:11:26;9.63;;;3.13;;
65757;SDS011;52495;52.208;5.158;2023-03-24T11:13:56;12.97;;;2.33;;
65757;SDS011;52495;52.208;5.158;2023-03-24T11:16:26;10.38;;;3.47;;
65757;SDS011;52495;52.208;5.158;2023-03-24T11:18:55;10.82;;;2.55;;
65757;SDS011;52495;52.208;5.158;2023-03-24T11:21:23;14.45;;;2.70;;
65757;SDS011;52495;52.208;5.158;2023-03-24T11:23:50;9.05;;;2.22;;
65757;SDS011;52495;52.208;5.158;2023-03-24T11:26:19;16.65;;;2.80;;
65757;SDS011;52495;52.208;5.158;2023-03-24T11:28:49;13.88;;;2.42;;
65757;SDS011;52495;52.208;5.158;2023-03-24T11:31:20;15.15;;;3.10;;
65757;SDS011;52495;52.208;5.158;2023-03-24T11:33:50;15.23;;;3.17;;
65757;SDS011;52495;52.208;5.158;2023-03-24T11:39:19;12.85;;;3.47;;
65757;SDS011;52495;52.208;5.158;2023-03-24T11:44:44;11.48;;;3.05;;
65757;SDS011;52495;52.208;5.158;2023-03-24T11:47:15;14.93;;;3.40;;
65757;SDS011;52495;52.208;5.158;2023-03-24T11:49:50;12.27;;;3.20;;
65757;SDS011;52495;52.208;5.158;2023-03-24T11:52:24;11.68;;;3.30;;
65757;SDS011;52495;52.208;5.158;2023-03-24T11:54:55;11.25;;;3.08;;
65757;SDS011;52495;52.208;5.158;2023-03-24T11:57:28;14.80;;;3.15;;
65757;SDS011;52495;52.208;5.158;2023-03-24T12:00:12;11.10;;;2.63;;
65757;SDS011;52495;52.208;5.158;2023-03-24T12:02:48;11.52;;;2.67;;
65757;SDS011;52495;52.208;5.158;2023-03-24T12:05:27;11.85;;;2.88;;
65757;SDS011;52495;52.208;5.158;2023-03-24T12:08:11;9.38;;;2.50;;
65757;SDS011;52495;52.208;5.158;2023-03-24T12:10:54;12.07;;;2.58;;
65757;SDS011;52495;52.208;5.158;2023-03-24T12:13:34;10.63;;;2.65;;
65757;SDS011;52495;52.208;5.158;2023-03-24T12:16:05;9.07;;;2.35;;
65757;SDS011;52495;52.208;5.158;2023-03-24T12:18:46;15.05;;;2.40;;
65757;SDS011;52495;52.208;5.158;2023-03-24T12:21:23;6.22;;;1.90;;
65757;SDS011;52495;52.208;5.158;2023-03-24T12:24:03;9.50;;;2.00;;
65757;SDS011;52495;52.208;5.158;2023-03-24T12:26:41;10.60;;;1.83;;
65757;SDS011;52495;52.208;5.158;2023-03-24T12:29:14;9.75;;;1.90;;
65757;SDS011;52495;52.208;5.158;2023-03-24T12:34:51;7.13;;;1.70;;
65757;SDS011;52495;52.208;5.158;2023-03-24T12:37:32;11.70;;;2.67;;
65757;SDS011;52495;52.208;5.158;2023-03-24T12:40:25;9.40;;;1.77;;
65757;SDS011;52495;52.208;5.158;2023-03-24T12:43:15;5.93;;;1.35;;
65757;SDS011;52495;52.208;5.158;2023-03-24T12:45:52;9.48;;;2.00;;
65757;SDS011;52495;52.208;5.158;2023-03-24T12:51:25;9.80;;;2.95;;
65757;SDS011;52495;52.208;5.158;2023-03-24T12:54:01;13.55;;;2.70;;
65757;SDS011;52495;52.208;5.158;2023-03-24T12:56:38;7.85;;;2.00;;
65757;SDS011;52495;52.208;5.158;2023-03-24T12:59:09;9.07;;;2.10;;
65757;SDS011;52495;52.208;5.158;2023-03-24T13:01:40;10.23;;;2.55;;
65757;SDS011;52495;52.208;5.158;2023-03-24T13:04:09;12.88;;;2.45;;
65757;SDS011;52495;52.208;5.158;2023-03-24T13:06:43;6.85;;;1.80;;
65757;SDS011;52495;52.208;5.158;2023-03-24T13:09:14;9.90;;;2.00;;
65757;SDS011;52495;52.208;5.158;2023-03-24T13:11:51;9.57;;;2.13;;
65757;SDS011;52495;52.208;5.158;2023-03-24T13:14:24;12.68;;;2.70;;
65757;SDS011;52495;52.208;5.158;2023-03-24T13:16:59;11.27;;;2.25;;
65757;SDS011;52495;52.208;5.158;2023-03-24T13:19:29;13.20;;;2.22;;
65757;SDS011;52495;52.208;5.158;2023-03-24T13:21:58;10.27;;;2.28;;
65757;SDS011;52495;52.208;5.158;2023-03-24T13:24:26;9.18;;;2.08;;
65757;SDS011;52495;52.208;5.158;2023-03-24T13:26:56;11.63;;;2.88;;
65757;SDS011;52495;52.208;5.158;2023-03-24T13:32:31;8.10;;;1.90;;
65757;SDS011;52495;52.208;5.158;2023-03-24T13:35:04;10.45;;;2.47;;
65757;SDS011;52495;52.208;5.158;2023-03-24T13:37:39;13.43;;;2.50;;
65757;SDS011;52495;52.208;5.158;2023-03-24T13:40:17;13.73;;;2.67;;
65757;SDS011;52495;52.208;5.158;2023-03-24T13:42:47;12.68;;;2.35;;
65757;SDS011;52495;52.208;5.158;2023-03-24T13:45:21;12.98;;;2.20;;
65757;SDS011;52495;52.208;5.158;2023-03-24T13:47:55;9.82;;;2.28;;
65757;SDS011;52495;52.208;5.158;2023-03-24T13:50:30;13.43;;;3.08;;
65757;SDS011;52495;52.208;5.158;2023-03-24T13:53:00;12.88;;;2.85;;
65757;SDS011;52495;52.208;5.158;2023-03-24T13:55:37;11.65;;;2.53;;
65757;SDS011;52495;52.208;5.158;2023-03-24T13:58:05;11.60;;;2.42;;
65757;SDS011;52495;52.208;5.158;2023-03-24T14:03:33;11.43;;;2.03;;
65757;SDS011;52495;52.208;5.158;2023-03-24T14:06:01;19.20;;;3.50;;
65757;SDS011;52495;52.208;5.158;2023-03-24T14:08:34;7.88;;;2.10;;
65757;SDS011;52495;52.208;5.158;2023-03-24T14:11:09;9.10;;;2.00;;
65757;SDS011;52495;52.208;5.158;2023-03-24T14:14:16;3.28;;;1.20;;
65757;SDS011;52495;52.208;5.158;2023-03-24T14:16:48;3.20;;;1.35;;
65757;SDS011;52495;52.208;5.158;2023-03-24T14:19:20;6.37;;;1.27;;
65757;SDS011;52495;52.208;5.158;2023-03-24T14:21:52;7.45;;;1.30;;
65757;SDS011;52495;52.208;5.158;2023-03-24T14:24:24;5.55;;;1.38;;
65757;SDS011;52495;52.208;5.158;2023-03-24T14:26:53;6.88;;;1.60;;
65757;SDS011;52495;52.208;5.158;2023-03-24T14:32:14;6.55;;;1.42;;
65757;SDS011;52495;52.208;5.158;2023-03-24T14:34:55;6.72;;;1.73;;
65757;SDS011;52495;52.208;5.158;2023-03-24T14:37:24;9.00;;;1.63;;
65757;SDS011;52495;52.208;5.158;2023-03-24T14:39:53;6.55;;;1.83;;
65757;SDS011;52495;52.208;5.158;2023-03-24T14:45:37;7.25;;;1.70;;
65757;SDS011;52495;52.208;5.158;2023-03-24T14:48:11;9.07;;;1.83;;
65757;SDS011;52495;52.208;5.158;2023-03-24T14:50:50;8.45;;;1.70;;
65757;SDS011;52495;52.208;5.158;2023-03-24T14:53:19;7.78;;;1.67;;
65757;SDS011;52495;52.208;5.158;2023-03-24T14:55:47;7.80;;;1.90;;
65757;SDS011;52495;52.208;5.158;2023-03-24T14:58:17;9.68;;;2.00;;
65757;SDS011;52495;52.208;5.158;2023-03-24T15:00:49;9.35;;;1.92;;
65757;SDS011;52495;52.208;5.158;2023-03-24T15:03:21;6.10;;;1.92;;
65757;SDS011;52495;52.208;5.158;2023-03-24T15:05:54;8.07;;;2.20;;
65757;SDS011;52495;52.208;5.158;2023-03-24T15:08:29;6.75;;;1.83;;
65757;SDS011;52495;52.208;5.158;2023-03-24T15:10:57;6.97;;;2.03;;
65757;SDS011;52495;52.208;5.158;2023-03-24T15:13:30;9.35;;;2.08;;
65757;SDS011;52495;52.208;5.158;2023-03-24T15:16:00;10.07;;;2.15;;
65757;SDS011;52495;52.208;5.158;2023-03-24T15:18:33;13.07;;;2.10;;
65757;SDS011;52495;52.208;5.158;2023-03-24T15:21:02;11.50;;;2.38;;
65757;SDS011;52495;52.208;5.158;2023-03-24T15:23:39;9.65;;;1.98;;
65757;SDS011;52495;52.208;5.158;2023-03-24T15:26:11;14.15;;;2.22;;
65757;SDS011;52495;52.208;5.158;2023-03-24T15:28:38;9.43;;;2.22;;
65757;SDS011;52495;52.208;5.158;2023-03-24T15:31:05;10.80;;;2.20;;
65757;SDS011;52495;52.208;5.158;2023-03-24T15:33:37;9.27;;;2.28;;
65757;SDS011;52495;52.208;5.158;2023-03-24T15:36:11;8.35;;;2.20;;
65757;SDS011;52495;52.208;5.158;2023-03-24T15:38:43;9.80;;;2.58;;
65757;SDS011;52495;52.208;5.158;2023-03-24T15:41:11;12.07;;;2.65;;
65757;SDS011;52495;52.208;5.158;2023-03-24T15:43:42;11.90;;;2.70;;
65757;SDS011;52495;52.208;5.158;2023-03-24T15:46:17;13.60;;;2.50;;
65757;SDS011;52495;52.208;5.158;2023-03-24T15:48:48;13.20;;;2.40;;